createdAt,value
2017-11-08T00:01:25.477Z,85.80
2017-11-08T00:03:52.965Z,86.20
2017-11-08T00:06:20.408Z,86.20
2017-11-08T00:08:47.834Z,86.20
2017-11-08T00:11:16.022Z,86.30
2017-11-08T00:13:43.526Z,86.20
2017-11-08T00:16:10.959Z,86.50
2017-11-08T00:18:38.437Z,86.50
2017-11-08T00:21:05.874Z,86.50
2017-11-08T00:23:36.233Z,86.40
2017-11-08T00:26:03.655Z,86.40
2017-11-08T00:28:31.089Z,86.20
2017-11-08T00:30:58.582Z,86.00
2017-11-08T00:33:26.038Z,85.80
2017-11-08T00:35:53.801Z,85.70
2017-11-08T00:38:21.233Z,85.50
2017-11-08T00:40:48.662Z,85.30
2017-11-08T00:43:16.896Z,85.00
2017-11-08T00:45:44.351Z,84.90
2017-11-08T00:48:11.810Z,84.80
2017-11-08T00:50:39.233Z,84.50
2017-11-08T00:53:09.897Z,84.50
2017-11-08T00:55:37.325Z,84.20
2017-11-08T00:58:04.754Z,83.90
2017-11-08T01:00:35.018Z,83.70
2017-11-08T01:03:02.440Z,83.70
2017-11-08T01:05:30.672Z,83.50
2017-11-08T01:07:58.098Z,83.50
2017-11-08T01:10:25.537Z,83.30
2017-11-08T01:12:53.754Z,83.00
2017-11-08T01:15:21.208Z,83.00
2017-11-08T01:17:48.647Z,82.90
2017-11-08T01:20:16.846Z,82.80
2017-11-08T01:22:44.294Z,82.80
2017-11-08T01:25:11.722Z,82.90
2017-11-08T01:27:39.914Z,83.20
2017-11-08T01:30:07.361Z,83.20
2017-11-08T01:32:34.794Z,83.50
2017-11-08T01:35:03.001Z,84.00
2017-11-08T01:37:36.037Z,83.90
2017-11-08T01:46:48.433Z,84.50
2017-11-08T01:49:15.860Z,84.60
2017-11-08T01:51:44.096Z,85.40
2017-11-08T01:54:11.524Z,85.30
2017-11-08T01:56:39.014Z,85.40
2017-11-08T01:59:06.441Z,85.70
2017-11-08T02:01:33.878Z,85.60
2017-11-08T02:04:02.085Z,85.90
2017-11-08T02:06:29.509Z,85.80
2017-11-08T02:08:57.737Z,86.10
2017-11-08T02:11:25.190Z,85.90
2017-11-08T02:13:52.618Z,85.80
2017-11-08T02:16:20.101Z,86.00
2017-11-08T02:18:49.477Z,86.00
2017-11-08T02:21:16.949Z,85.90
2017-11-08T02:23:44.394Z,85.90
2017-11-08T02:26:11.885Z,85.80
2017-11-08T02:28:39.308Z,85.80
2017-11-08T02:31:06.788Z,85.80
2017-11-08T02:33:34.236Z,85.80
2017-11-08T02:36:01.665Z,85.80
2017-11-08T02:38:29.999Z,85.70
2017-11-08T02:40:57.417Z,85.60
2017-11-08T02:43:24.844Z,85.60
2017-11-08T02:45:53.060Z,85.80
2017-11-08T02:48:20.468Z,85.60
2017-11-08T02:50:47.913Z,85.60
2017-11-08T02:53:20.949Z,85.60
2017-11-08T02:55:48.389Z,85.40
2017-11-08T02:58:16.612Z,85.40
2017-11-08T03:00:46.840Z,85.40
2017-11-08T03:03:14.290Z,85.70
2017-11-08T03:05:41.713Z,86.00
2017-11-08T03:08:09.169Z,86.00
2017-11-08T03:10:37.905Z,86.10
2017-11-08T03:13:05.325Z,86.00
2017-11-08T03:15:32.768Z,86.10
2017-11-08T03:18:01.067Z,86.20
2017-11-08T03:20:28.546Z,86.20
2017-11-08T03:22:55.976Z,86.50
2017-11-08T03:25:23.393Z,87.00
2017-11-08T03:27:51.608Z,87.10
2017-11-08T03:30:19.041Z,87.00
2017-11-08T03:32:47.264Z,87.00
2017-11-08T03:35:14.688Z,86.90
2017-11-08T03:37:42.180Z,86.90
2017-11-08T03:40:09.600Z,86.90
2017-11-08T03:42:37.099Z,86.80
2017-11-08T03:45:04.538Z,86.80
2017-11-08T03:47:32.021Z,86.70
2017-11-08T03:49:59.469Z,86.60
2017-11-08T03:52:26.912Z,86.60
2017-11-08T03:54:54.358Z,86.70
2017-11-08T03:57:21.842Z,86.60
2017-11-08T03:59:49.285Z,87.40
2017-11-08T04:02:16.724Z,86.50
2017-11-08T04:04:44.150Z,86.50
2017-11-08T04:07:11.602Z,86.50
2017-11-08T04:09:39.121Z,86.70
2017-11-08T04:12:06.893Z,86.90
2017-11-08T04:14:34.313Z,87.10
2017-11-08T04:17:01.745Z,87.20
2017-11-08T04:19:30.078Z,87.70
2017-11-08T04:21:57.529Z,87.50
2017-11-08T04:24:24.957Z,87.70
2017-11-08T04:26:52.385Z,88.40
2017-11-08T04:29:19.813Z,87.80
2017-11-08T04:31:47.265Z,87.80
2017-11-08T04:34:14.732Z,88.00
2017-11-08T04:36:42.181Z,88.20
2017-11-08T04:39:09.609Z,88.30
2017-11-08T04:41:37.033Z,88.40
2017-11-08T04:44:05.264Z,88.10
2017-11-08T04:46:32.697Z,88.10
2017-11-08T04:49:00.127Z,88.10
2017-11-08T04:51:28.362Z,88.60
2017-11-08T04:53:55.796Z,88.00
2017-11-08T04:56:23.233Z,88.20
2017-11-08T04:58:50.729Z,88.30
2017-11-08T05:01:18.173Z,88.50
2017-11-08T05:03:45.619Z,89.00
2017-11-08T05:06:13.088Z,89.40
2017-11-08T05:08:40.501Z,89.70
2017-11-08T05:11:08.704Z,89.80
2017-11-08T05:13:36.143Z,89.70
2017-11-08T05:16:04.329Z,89.80
2017-11-08T05:18:31.823Z,89.70
2017-11-08T05:20:59.277Z,89.80
2017-11-08T05:23:26.734Z,90.00
2017-11-08T05:25:54.301Z,90.00
2017-11-08T05:28:21.725Z,90.00
2017-11-08T05:30:49.222Z,90.00
2017-11-08T05:33:16.645Z,90.00
2017-11-08T05:35:44.085Z,90.10
2017-11-08T05:38:11.594Z,90.10
2017-11-08T05:40:39.022Z,90.10
2017-11-08T05:43:06.449Z,90.10
2017-11-08T05:45:34.681Z,90.20
2017-11-08T05:48:02.141Z,90.20
2017-11-08T05:50:29.592Z,90.20
2017-11-08T05:52:57.353Z,90.10
2017-11-08T05:55:24.780Z,90.20
2017-11-08T05:57:52.209Z,90.20
2017-11-08T06:00:20.411Z,90.30
2017-11-08T06:02:47.842Z,90.30
2017-11-08T06:05:15.545Z,90.40
2017-11-08T06:07:42.974Z,90.40
2017-11-08T06:10:11.169Z,90.60
2017-11-08T06:12:38.614Z,90.50
2017-11-08T06:15:06.813Z,90.60
2017-11-08T06:17:34.257Z,90.50
2017-11-08T06:20:01.686Z,90.60
2017-11-08T06:22:29.892Z,90.60
2017-11-08T06:24:57.322Z,90.50
2017-11-08T06:27:25.532Z,90.60
2017-11-08T06:29:52.966Z,90.50
2017-11-08T06:32:20.398Z,90.60
2017-11-08T06:34:47.918Z,90.60
2017-11-08T06:37:15.348Z,90.50
2017-11-08T06:39:42.778Z,90.50
2017-11-08T06:42:10.285Z,90.50
2017-11-08T06:44:37.853Z,90.40
2017-11-08T06:47:05.322Z,90.40
2017-11-08T06:49:32.769Z,90.50
2017-11-08T06:52:00.209Z,90.50
2017-11-08T06:54:27.645Z,90.50
2017-11-08T06:56:55.832Z,90.60
2017-11-08T06:59:23.312Z,90.60
2017-11-08T07:01:50.750Z,90.60
2017-11-08T07:04:18.230Z,90.60
2017-11-08T07:06:45.779Z,90.60
2017-11-08T07:09:13.661Z,90.70
2017-11-08T07:11:41.088Z,90.80
2017-11-08T07:14:08.570Z,90.80
2017-11-08T07:16:36.008Z,90.80
2017-11-08T07:19:03.445Z,90.80
2017-11-08T07:21:31.652Z,90.80
2017-11-08T07:23:59.114Z,90.80
2017-11-08T07:26:26.544Z,91.00
2017-11-08T07:28:53.998Z,91.10
2017-11-08T07:31:21.421Z,91.10
2017-11-08T07:33:49.641Z,91.30
2017-11-08T07:36:17.077Z,91.00
2017-11-08T07:38:45.293Z,90.90
2017-11-08T07:41:12.721Z,90.90
2017-11-08T07:43:40.196Z,90.80
2017-11-08T07:46:07.628Z,90.90
2017-11-08T07:48:36.657Z,90.70
2017-11-08T07:51:04.137Z,91.00
2017-11-08T07:53:31.588Z,90.80
2017-11-08T07:56:02.897Z,90.80
2017-11-08T07:58:30.377Z,90.80
2017-11-08T08:00:57.811Z,90.90
2017-11-08T08:03:25.265Z,90.90
2017-11-08T08:05:52.689Z,91.00
2017-11-08T08:08:20.216Z,91.00
2017-11-08T08:10:47.658Z,91.10
2017-11-08T08:13:15.089Z,91.10
2017-11-08T08:15:43.293Z,91.20
2017-11-08T08:18:10.718Z,91.10
2017-11-08T08:20:38.164Z,91.20
2017-11-08T08:23:06.481Z,91.30
2017-11-08T08:25:33.889Z,91.20
2017-11-08T08:28:01.337Z,91.30
2017-11-08T08:30:28.767Z,91.30
2017-11-08T08:32:56.214Z,91.30
2017-11-08T08:35:23.646Z,91.40
2017-11-08T08:37:51.137Z,91.80
2017-11-08T08:40:18.589Z,91.50
2017-11-08T08:42:46.017Z,91.50
2017-11-08T08:45:13.511Z,91.50
2017-11-08T08:47:40.944Z,91.60
2017-11-08T08:50:08.389Z,91.70
2017-11-08T08:52:35.826Z,91.70
2017-11-08T08:55:04.050Z,91.80
2017-11-08T08:57:31.498Z,91.70
2017-11-08T08:59:58.962Z,91.70
2017-11-08T09:02:31.305Z,91.70
2017-11-08T09:04:58.801Z,91.70
2017-11-08T09:07:26.240Z,91.80
2017-11-08T09:09:53.709Z,91.80
2017-11-08T09:12:21.169Z,91.80
2017-11-08T09:14:48.624Z,91.90
2017-11-08T09:17:16.085Z,91.90
2017-11-08T09:19:43.540Z,91.90
2017-11-08T09:22:10.997Z,91.90
2017-11-08T09:24:38.753Z,92.20
2017-11-08T09:27:06.217Z,91.80
2017-11-08T09:29:34.565Z,91.90
2017-11-08T09:32:02.878Z,91.70
2017-11-08T09:34:30.320Z,91.70
2017-11-08T09:36:57.757Z,91.80
2017-11-08T09:39:25.248Z,91.80
2017-11-08T09:41:55.277Z,91.90
2017-11-08T09:44:22.825Z,91.90
2017-11-08T09:46:50.263Z,91.90
2017-11-08T09:49:17.688Z,91.90
2017-11-08T09:51:45.901Z,91.90
2017-11-08T09:54:13.331Z,91.80
2017-11-08T09:56:40.832Z,91.80
2017-11-08T09:59:11.105Z,91.90
2017-11-08T10:01:42.233Z,91.80
2017-11-08T10:04:09.729Z,91.80
2017-11-08T10:06:40.105Z,91.80
2017-11-08T10:09:07.562Z,91.80
2017-11-08T10:11:39.089Z,91.70
2017-11-08T10:14:06.431Z,91.70
2017-11-08T10:16:33.860Z,91.90
2017-11-08T10:19:02.906Z,92.00
2017-11-08T10:21:30.363Z,92.00
2017-11-08T10:23:57.800Z,92.10
2017-11-08T10:26:25.274Z,92.10
2017-11-08T10:28:52.734Z,92.10
2017-11-08T10:31:20.500Z,92.00
2017-11-08T10:33:47.954Z,92.00
2017-11-08T10:36:15.383Z,91.90
2017-11-08T10:38:42.813Z,91.90
2017-11-08T10:41:11.021Z,91.90
2017-11-08T10:43:38.463Z,91.90
2017-11-08T10:46:05.922Z,91.80
2017-11-08T10:48:34.201Z,91.80
2017-11-08T10:51:01.638Z,91.80
2017-11-08T10:53:29.070Z,91.90
2017-11-08T10:55:57.281Z,91.80
2017-11-08T10:58:24.717Z,91.80
2017-11-08T11:00:52.159Z,91.80
2017-11-08T11:03:19.662Z,91.70
2017-11-08T11:05:47.422Z,91.80
2017-11-08T11:08:14.850Z,91.90
2017-11-08T11:10:42.278Z,91.80
2017-11-08T11:13:14.421Z,92.00
2017-11-08T11:15:41.872Z,91.90
2017-11-08T11:18:09.318Z,92.00
2017-11-08T11:20:51.634Z,92.10
2017-11-08T11:23:19.195Z,92.10
2017-11-08T11:25:46.619Z,92.10
2017-11-08T11:28:14.067Z,92.10
2017-11-08T11:30:43.319Z,92.00
2017-11-08T11:33:10.863Z,92.10
2017-11-08T11:35:38.295Z,92.00
2017-11-08T11:38:05.718Z,92.00
2017-11-08T11:40:33.936Z,92.00
2017-11-08T11:43:01.358Z,92.00
2017-11-08T11:45:29.581Z,91.90
2017-11-08T11:48:00.945Z,91.80
2017-11-08T11:50:32.285Z,91.90
2017-11-08T11:52:59.721Z,92.00
2017-11-08T11:55:27.520Z,92.00
2017-11-08T11:57:54.953Z,91.90
2017-11-08T12:00:22.410Z,91.90
2017-11-08T12:02:49.848Z,91.90
2017-11-08T12:05:18.045Z,91.70
2017-11-08T12:07:45.487Z,91.70
2017-11-08T12:10:12.980Z,91.70
2017-11-08T12:12:40.418Z,91.70
2017-11-08T12:15:07.869Z,91.70
2017-11-08T12:17:35.282Z,91.70
2017-11-08T12:20:03.508Z,91.80
2017-11-08T12:22:30.934Z,91.70
2017-11-08T12:24:59.158Z,91.90
2017-11-08T12:27:31.481Z,91.90
2017-11-08T12:29:59.690Z,92.00
2017-11-08T12:32:27.127Z,92.00
2017-11-08T12:34:58.550Z,92.10
2017-11-08T12:37:27.534Z,92.00
2017-11-08T12:39:56.469Z,92.00
2017-11-08T12:42:26.834Z,92.00
2017-11-08T12:44:59.850Z,91.90
2017-11-08T12:47:27.290Z,91.90
2017-11-08T12:49:54.819Z,91.80
2017-11-08T12:52:22.289Z,91.80
2017-11-08T12:54:49.732Z,91.20
2017-11-08T12:57:17.165Z,91.20
2017-11-08T12:59:44.617Z,91.60
2017-11-08T13:02:12.818Z,91.10
2017-11-08T13:04:40.258Z,91.60
2017-11-08T13:07:07.698Z,91.00
2017-11-08T13:09:37.819Z,91.20
2017-11-08T13:12:06.014Z,91.10
2017-11-08T13:14:33.447Z,91.50
2017-11-08T13:17:01.659Z,91.60
2017-11-08T13:19:29.085Z,91.60
2017-11-08T13:21:57.611Z,91.20
2017-11-08T13:24:25.049Z,91.70
2017-11-08T13:26:52.535Z,91.60
2017-11-08T13:29:19.987Z,91.70
2017-11-08T13:31:47.435Z,91.20
2017-11-08T13:34:14.885Z,91.70
2017-11-08T13:36:42.359Z,91.80
2017-11-08T13:39:09.808Z,91.70
2017-11-08T13:41:37.242Z,91.80
2017-11-08T13:44:04.674Z,91.80
2017-11-08T13:46:32.181Z,91.90
2017-11-08T13:48:59.611Z,91.80
2017-11-08T13:51:27.812Z,91.80
2017-11-08T13:53:55.249Z,92.20
2017-11-08T13:56:22.689Z,91.90
2017-11-08T13:58:50.886Z,92.00
2017-11-08T14:01:18.313Z,92.00
2017-11-08T14:03:46.514Z,92.10
2017-11-08T14:06:13.936Z,92.00
2017-11-08T14:08:41.377Z,92.00
2017-11-08T14:11:08.801Z,92.10
2017-11-08T14:13:36.550Z,92.10
2017-11-08T14:16:04.006Z,92.10
2017-11-08T14:18:32.210Z,92.00
2017-11-08T14:20:59.783Z,92.00
2017-11-08T14:23:27.205Z,91.90
2017-11-08T14:25:54.686Z,91.80
2017-11-08T14:28:22.119Z,91.80
2017-11-08T14:30:49.916Z,91.80
2017-11-08T14:33:17.387Z,91.70
2017-11-08T14:35:44.823Z,91.60
2017-11-08T14:38:12.275Z,91.50
2017-11-08T14:40:39.750Z,91.70
2017-11-08T14:43:07.209Z,91.70
2017-11-08T14:45:34.665Z,91.60
2017-11-08T14:48:02.110Z,91.70
2017-11-08T14:50:29.547Z,91.70
2017-11-08T14:53:12.796Z,91.60
2017-11-08T14:55:40.239Z,91.60
2017-11-08T14:58:07.717Z,91.60
2017-11-08T15:00:35.178Z,91.60
2017-11-08T15:03:02.632Z,91.60
2017-11-08T15:05:30.082Z,91.50
2017-11-08T15:07:57.544Z,91.50
2017-11-08T15:10:24.978Z,91.50
2017-11-08T15:12:52.426Z,91.50
2017-11-08T15:15:19.921Z,91.50
2017-11-08T15:17:47.358Z,91.60
2017-11-08T15:20:20.568Z,91.70
2017-11-08T15:22:48.275Z,91.70
2017-11-08T15:25:16.476Z,91.80
2017-11-08T15:27:43.906Z,91.70
2017-11-08T15:30:17.868Z,91.90
2017-11-08T15:32:47.088Z,91.80
2017-11-08T15:35:14.538Z,91.80
2017-11-08T15:37:41.973Z,91.90
2017-11-08T15:40:09.457Z,91.90
2017-11-08T15:42:36.907Z,91.90
2017-11-08T15:45:04.366Z,91.90
2017-11-08T15:47:37.726Z,91.90
2017-11-08T15:50:05.169Z,91.90
2017-11-08T15:52:33.387Z,91.90
2017-11-08T15:55:00.857Z,91.90
2017-11-08T15:57:28.292Z,91.90
2017-11-08T15:59:55.757Z,91.90
2017-11-08T16:02:24.108Z,91.90
2017-11-08T16:04:51.544Z,91.90
2017-11-08T16:07:19.750Z,91.90
2017-11-08T16:09:47.545Z,91.90
2017-11-08T16:12:14.979Z,92.00
2017-11-08T16:14:42.458Z,92.00
2017-11-08T16:17:11.800Z,92.00
2017-11-08T16:19:40.818Z,92.00
2017-11-08T16:22:08.273Z,92.00
2017-11-08T16:24:36.694Z,92.00
2017-11-08T16:27:04.130Z,91.90
2017-11-08T16:29:32.362Z,92.00
2017-11-08T16:32:00.562Z,92.10
2017-11-08T16:34:28.015Z,92.10
2017-11-08T16:36:55.434Z,92.10
2017-11-08T16:39:22.878Z,92.20
2017-11-08T16:41:50.306Z,92.10
2017-11-08T16:44:18.093Z,92.20
2017-11-08T16:46:45.536Z,92.20
2017-11-08T16:49:12.953Z,92.20
2017-11-08T16:51:41.281Z,92.20
2017-11-08T16:54:08.711Z,92.20
2017-11-08T16:56:36.494Z,92.40
2017-11-08T16:59:03.927Z,92.40
2017-11-08T17:01:31.365Z,92.50
2017-11-08T17:03:59.573Z,92.60
2017-11-08T17:06:27.005Z,92.60
2017-11-08T17:08:54.456Z,92.70
2017-11-08T17:11:22.657Z,92.70
2017-11-08T17:13:50.085Z,92.90
2017-11-08T17:16:18.301Z,93.00
2017-11-08T17:18:45.763Z,92.90
2017-11-08T17:21:13.235Z,92.80
2017-11-08T17:23:40.663Z,92.80
2017-11-08T17:26:08.118Z,92.70
2017-11-08T17:28:35.765Z,92.80
2017-11-08T17:31:03.975Z,92.80
2017-11-08T17:33:31.435Z,92.80
2017-11-08T17:35:58.979Z,92.80
2017-11-08T17:38:26.453Z,92.90
2017-11-08T17:40:53.895Z,92.90
2017-11-08T17:43:21.345Z,92.90
2017-11-08T17:45:48.833Z,93.00
2017-11-08T17:48:16.270Z,93.00
2017-11-08T17:50:43.711Z,93.00
2017-11-08T17:53:11.200Z,93.00
2017-11-08T17:55:38.647Z,93.10
2017-11-08T17:58:06.067Z,93.20
2017-11-08T18:00:34.627Z,93.20
2017-11-08T18:03:02.086Z,93.20
2017-11-08T18:05:29.538Z,93.20
2017-11-08T18:07:56.970Z,93.20
2017-11-08T18:10:24.409Z,93.30
2017-11-08T18:12:51.851Z,93.30
2017-11-08T18:15:19.284Z,93.30
2017-11-08T18:17:47.499Z,93.20
2017-11-08T18:20:14.944Z,93.10
2017-11-08T18:22:43.285Z,93.20
2017-11-08T18:25:11.514Z,93.20
2017-11-08T18:27:38.947Z,93.20
2017-11-08T18:30:06.379Z,93.20
2017-11-08T18:32:34.594Z,93.20
2017-11-08T18:35:02.020Z,93.20
2017-11-08T18:37:29.469Z,93.30
2017-11-08T18:39:57.669Z,93.30
2017-11-08T18:42:25.125Z,93.20
2017-11-08T18:44:52.609Z,93.20
2017-11-08T18:47:20.059Z,93.20
2017-11-08T18:49:47.506Z,93.20
2017-11-08T18:52:14.978Z,93.20
2017-11-08T18:54:42.436Z,93.20
2017-11-08T18:57:09.858Z,93.20
2017-11-08T18:59:38.443Z,93.10
2017-11-08T19:02:05.874Z,93.10
2017-11-08T19:04:33.308Z,93.10
2017-11-08T19:07:00.747Z,93.10
2017-11-08T19:09:28.214Z,93.20
2017-11-08T19:11:55.673Z,93.20
2017-11-08T19:14:23.138Z,93.10
2017-11-08T19:16:50.571Z,93.10
2017-11-08T19:19:18.008Z,93.20
2017-11-08T19:21:45.427Z,93.20
2017-11-08T19:24:13.763Z,93.50
2017-11-08T19:26:41.175Z,93.30
2017-11-08T19:29:09.378Z,93.40
2017-11-08T19:31:36.806Z,93.30
2017-11-08T19:34:05.129Z,93.50
2017-11-08T19:36:32.559Z,93.40
2017-11-08T19:39:00.762Z,93.40
2017-11-08T19:41:28.214Z,93.40
2017-11-08T19:43:55.630Z,93.40
2017-11-08T19:46:23.826Z,93.40
2017-11-08T19:48:51.319Z,93.30
2017-11-08T19:51:18.737Z,93.60
2017-11-08T19:53:46.182Z,93.20
2017-11-08T19:56:14.496Z,93.40
2017-11-08T19:58:41.914Z,93.30
2017-11-08T20:01:10.130Z,93.20
2017-11-08T20:03:37.690Z,93.20
2017-11-08T20:06:05.121Z,93.20
2017-11-08T20:08:33.418Z,93.10
2017-11-08T20:11:00.838Z,93.10
2017-11-08T20:13:29.056Z,93.00
2017-11-08T20:15:56.474Z,93.00
2017-11-08T20:18:24.674Z,92.90
2017-11-08T20:20:52.107Z,92.90
2017-11-08T20:23:20.315Z,92.90
2017-11-08T20:25:47.747Z,92.90
2017-11-08T20:28:15.246Z,92.80
2017-11-08T20:30:42.705Z,92.80
2017-11-08T20:33:10.159Z,92.70
2017-11-08T20:35:37.607Z,92.70
2017-11-08T20:38:05.059Z,92.70
2017-11-08T20:40:32.535Z,92.60
2017-11-08T20:42:59.994Z,92.60
2017-11-08T20:45:27.541Z,92.60
2017-11-08T20:47:54.958Z,92.70
2017-11-08T20:50:23.150Z,92.70
2017-11-08T20:52:50.642Z,92.60
2017-11-08T20:55:18.075Z,92.70
2017-11-08T20:57:45.520Z,92.60
2017-11-08T21:00:12.958Z,92.70
2017-11-08T21:02:41.277Z,92.70
2017-11-08T21:05:08.736Z,92.60
2017-11-08T21:07:36.194Z,92.60
2017-11-08T21:10:03.626Z,92.60
2017-11-08T21:12:31.069Z,92.60
2017-11-08T21:14:58.569Z,92.60
2017-11-08T21:17:26.144Z,92.60
2017-11-08T21:19:53.577Z,92.60
2017-11-08T21:22:21.140Z,92.60
2017-11-08T21:24:48.555Z,92.60
2017-11-08T21:27:16.786Z,92.60
2017-11-08T21:29:44.331Z,92.50
2017-11-08T21:32:11.746Z,92.90
2017-11-08T21:34:39.939Z,92.60
2017-11-08T21:37:07.369Z,92.60
2017-11-08T21:39:36.211Z,92.70
2017-11-08T21:42:03.674Z,92.70
2017-11-08T21:44:31.101Z,92.60
2017-11-08T21:46:58.555Z,92.70
2017-11-08T21:49:26.774Z,92.70
2017-11-08T21:51:54.217Z,92.60
2017-11-08T21:54:21.648Z,92.60
2017-11-08T21:56:49.087Z,92.60
2017-11-08T21:59:17.296Z,92.60
2017-11-08T22:01:44.714Z,92.60
2017-11-08T22:04:13.046Z,92.50
2017-11-08T22:06:40.478Z,92.50
2017-11-08T22:09:08.048Z,92.30
2017-11-08T22:11:35.471Z,92.30
2017-11-08T22:14:03.695Z,92.30
2017-11-08T22:16:31.124Z,92.30
2017-11-08T22:18:58.610Z,92.20
2017-11-08T22:21:26.695Z,92.20
2017-11-08T22:23:54.159Z,92.20
2017-11-08T22:26:21.711Z,92.20
2017-11-08T22:28:49.164Z,92.30
2017-11-08T22:31:16.607Z,92.30
2017-11-08T22:33:44.081Z,92.20
2017-11-08T22:36:11.517Z,92.20
2017-11-08T22:38:38.957Z,92.20
2017-11-08T22:41:06.381Z,92.20
2017-11-08T22:43:33.816Z,92.20
2017-11-08T22:46:01.249Z,92.20
2017-11-08T22:48:28.681Z,92.30
2017-11-08T22:50:56.882Z,92.20
2017-11-08T22:53:24.306Z,92.10
2017-11-08T22:55:52.506Z,92.20
2017-11-08T22:58:19.938Z,92.20
2017-11-08T23:00:48.154Z,92.20
2017-11-08T23:03:15.610Z,92.30
2017-11-08T23:05:43.069Z,92.20
2017-11-08T23:08:10.522Z,92.20
2017-11-08T23:10:37.946Z,92.20
2017-11-08T23:13:06.147Z,92.20
2017-11-08T23:15:33.636Z,92.10
2017-11-08T23:18:01.079Z,92.20
2017-11-08T23:20:28.615Z,92.20
2017-11-08T23:22:56.021Z,92.10
2017-11-08T23:25:23.462Z,92.20
2017-11-08T23:27:50.898Z,92.30
2017-11-08T23:30:18.347Z,92.20
2017-11-08T23:32:45.762Z,92.20
2017-11-08T23:35:13.962Z,92.30
2017-11-08T23:37:41.409Z,92.30
2017-11-08T23:40:08.832Z,92.30
2017-11-08T23:42:36.271Z,92.30
2017-11-08T23:45:03.726Z,92.20
2017-11-08T23:47:31.151Z,92.20
2017-11-08T23:49:58.586Z,92.20
2017-11-08T23:52:26.813Z,92.20
2017-11-08T23:54:54.574Z,92.20
2017-11-08T23:57:22.014Z,92.20
2017-11-08T23:59:49.441Z,92.20
